Terminal Aerodrome Forecast
Issued by NWS

Home | Current Version | Previous Version | Text Only | Print | Product List | Glossary On
Versions: 1 2 3 4 5 6 7 8 9 10 11 12 13 14 15 16
000
FTAK31 PANC 232337
TAFAHO
TAF
PAHO 232337Z 2400/2424 VRB04KT P6SM BKN150
     FM240600 06005KT 1 1/2SM -SN BR BKN015
     FM241200 23005KT 4SM -SN BR SCT015 OVC025
     FM241800 25018G28KT P6SM SCT030 BKN045=

USA.gov is the U.S. government's official web portal to all federal, state and local government web resources and services.